sensor_id;sensor_type;location;lat;lon;timestamp;P1;durP1;ratioP1;P2;durP2;ratioP2
16254;SDS011;8235;52.198;9.904;2023-05-07T00:00:54;37.17;;;23.37;;
16254;SDS011;8235;52.198;9.904;2023-05-07T00:03:22;39.23;;;25.30;;
16254;SDS011;8235;52.198;9.904;2023-05-07T00:05:48;39.37;;;24.33;;
16254;SDS011;8235;52.198;9.904;2023-05-07T00:08:15;40.90;;;25.27;;
16254;SDS011;8235;52.198;9.904;2023-05-07T00:10:41;40.30;;;25.70;;
16254;SDS011;8235;52.198;9.904;2023-05-07T00:13:08;44.17;;;26.63;;
16254;SDS011;8235;52.198;9.904;2023-05-07T00:15:34;42.40;;;25.73;;
16254;SDS011;8235;52.198;9.904;2023-05-07T00:18:01;45.43;;;26.00;;
16254;SDS011;8235;52.198;9.904;2023-05-07T00:20:28;45.13;;;25.77;;
16254;SDS011;8235;52.198;9.904;2023-05-07T00:22:55;41.93;;;24.50;;
16254;SDS011;8235;52.198;9.904;2023-05-07T00:25:21;46.23;;;25.93;;
16254;SDS011;8235;52.198;9.904;2023-05-07T00:27:48;36.67;;;24.37;;
16254;SDS011;8235;52.198;9.904;2023-05-07T00:30:14;38.80;;;23.00;;
16254;SDS011;8235;52.198;9.904;2023-05-07T00:32:41;41.87;;;26.27;;
16254;SDS011;8235;52.198;9.904;2023-05-07T00:35:10;42.93;;;24.07;;
16254;SDS011;8235;52.198;9.904;2023-05-07T00:37:38;39.60;;;23.80;;
16254;SDS011;8235;52.198;9.904;2023-05-07T00:40:06;44.13;;;23.87;;
16254;SDS011;8235;52.198;9.904;2023-05-07T00:42:33;42.93;;;26.17;;
16254;SDS011;8235;52.198;9.904;2023-05-07T00:44:59;40.90;;;25.00;;
16254;SDS011;8235;52.198;9.904;2023-05-07T00:47:26;41.83;;;24.77;;
16254;SDS011;8235;52.198;9.904;2023-05-07T00:49:52;41.63;;;24.53;;
16254;SDS011;8235;52.198;9.904;2023-05-07T00:52:19;45.93;;;25.33;;
16254;SDS011;8235;52.198;9.904;2023-05-07T00:54:49;45.43;;;24.33;;
16254;SDS011;8235;52.198;9.904;2023-05-07T00:57:15;40.00;;;24.10;;
16254;SDS011;8235;52.198;9.904;2023-05-07T00:59:42;46.00;;;26.67;;
16254;SDS011;8235;52.198;9.904;2023-05-07T01:02:08;46.60;;;25.50;;
16254;SDS011;8235;52.198;9.904;2023-05-07T01:04:35;46.77;;;25.40;;
16254;SDS011;8235;52.198;9.904;2023-05-07T01:07:01;45.03;;;26.30;;
16254;SDS011;8235;52.198;9.904;2023-05-07T01:09:29;37.53;;;22.53;;
16254;SDS011;8235;52.198;9.904;2023-05-07T01:11:57;42.53;;;24.20;;
16254;SDS011;8235;52.198;9.904;2023-05-07T01:14:24;39.73;;;24.10;;
16254;SDS011;8235;52.198;9.904;2023-05-07T01:16:51;49.07;;;26.40;;
16254;SDS011;8235;52.198;9.904;2023-05-07T01:19:18;46.80;;;25.43;;
16254;SDS011;8235;52.198;9.904;2023-05-07T01:21:46;44.13;;;25.97;;
16254;SDS011;8235;52.198;9.904;2023-05-07T01:24:15;41.90;;;23.03;;
16254;SDS011;8235;52.198;9.904;2023-05-07T01:26:42;45.23;;;25.47;;
16254;SDS011;8235;52.198;9.904;2023-05-07T01:29:08;40.27;;;24.47;;
16254;SDS011;8235;52.198;9.904;2023-05-07T01:31:35;43.43;;;23.77;;
16254;SDS011;8235;52.198;9.904;2023-05-07T01:34:03;49.43;;;25.40;;
16254;SDS011;8235;52.198;9.904;2023-05-07T01:36:31;43.47;;;24.43;;
16254;SDS011;8235;52.198;9.904;2023-05-07T01:38:58;40.90;;;22.57;;
16254;SDS011;8235;52.198;9.904;2023-05-07T01:41:26;32.53;;;19.93;;
16254;SDS011;8235;52.198;9.904;2023-05-07T01:43:54;34.33;;;20.77;;
16254;SDS011;8235;52.198;9.904;2023-05-07T01:46:21;34.33;;;19.60;;
16254;SDS011;8235;52.198;9.904;2023-05-07T01:48:48;32.97;;;19.67;;
16254;SDS011;8235;52.198;9.904;2023-05-07T01:51:15;30.20;;;19.40;;
16254;SDS011;8235;52.198;9.904;2023-05-07T01:53:42;30.60;;;18.03;;
16254;SDS011;8235;52.198;9.904;2023-05-07T01:56:10;31.47;;;19.83;;
16254;SDS011;8235;52.198;9.904;2023-05-07T01:58:38;27.60;;;18.23;;
16254;SDS011;8235;52.198;9.904;2023-05-07T02:01:05;29.03;;;17.73;;
16254;SDS011;8235;52.198;9.904;2023-05-07T02:03:31;30.60;;;18.53;;
16254;SDS011;8235;52.198;9.904;2023-05-07T02:05:57;28.37;;;17.70;;
16254;SDS011;8235;52.198;9.904;2023-05-07T02:08:24;29.80;;;17.10;;
16254;SDS011;8235;52.198;9.904;2023-05-07T02:10:50;28.73;;;18.00;;
16254;SDS011;8235;52.198;9.904;2023-05-07T02:13:18;25.70;;;17.70;;
16254;SDS011;8235;52.198;9.904;2023-05-07T02:15:48;27.83;;;16.20;;
16254;SDS011;8235;52.198;9.904;2023-05-07T02:18:15;25.63;;;16.23;;
16254;SDS011;8235;52.198;9.904;2023-05-07T02:20:42;22.57;;;16.63;;
16254;SDS011;8235;52.198;9.904;2023-05-07T02:23:09;21.23;;;15.63;;
16254;SDS011;8235;52.198;9.904;2023-05-07T02:25:35;27.53;;;15.33;;
16254;SDS011;8235;52.198;9.904;2023-05-07T02:28:02;23.00;;;15.90;;
16254;SDS011;8235;52.198;9.904;2023-05-07T02:30:28;22.03;;;15.93;;
16254;SDS011;8235;52.198;9.904;2023-05-07T02:32:56;20.03;;;14.77;;
16254;SDS011;8235;52.198;9.904;2023-05-07T02:35:23;25.13;;;16.00;;
16254;SDS011;8235;52.198;9.904;2023-05-07T02:37:50;22.57;;;15.93;;
16254;SDS011;8235;52.198;9.904;2023-05-07T02:40:16;20.90;;;14.63;;
16254;SDS011;8235;52.198;9.904;2023-05-07T02:42:43;20.97;;;15.23;;
16254;SDS011;8235;52.198;9.904;2023-05-07T02:45:10;21.10;;;14.73;;
16254;SDS011;8235;52.198;9.904;2023-05-07T02:47:36;19.10;;;13.90;;
16254;SDS011;8235;52.198;9.904;2023-05-07T02:50:05;21.60;;;14.67;;
16254;SDS011;8235;52.198;9.904;2023-05-07T02:52:32;18.97;;;13.23;;
16254;SDS011;8235;52.198;9.904;2023-05-07T02:54:59;20.17;;;15.20;;
16254;SDS011;8235;52.198;9.904;2023-05-07T02:57:25;22.23;;;15.93;;
16254;SDS011;8235;52.198;9.904;2023-05-07T02:59:51;22.47;;;16.07;;
16254;SDS011;8235;52.198;9.904;2023-05-07T03:02:18;22.13;;;16.63;;
16254;SDS011;8235;52.198;9.904;2023-05-07T03:04:45;26.80;;;16.40;;
16254;SDS011;8235;52.198;9.904;2023-05-07T03:07:12;21.27;;;15.30;;
16254;SDS011;8235;52.198;9.904;2023-05-07T03:09:39;19.13;;;14.60;;
16254;SDS011;8235;52.198;9.904;2023-05-07T03:12:06;19.10;;;14.93;;
16254;SDS011;8235;52.198;9.904;2023-05-07T03:14:32;22.20;;;16.20;;
16254;SDS011;8235;52.198;9.904;2023-05-07T03:16:59;23.40;;;17.03;;
16254;SDS011;8235;52.198;9.904;2023-05-07T03:19:25;21.80;;;16.00;;
16254;SDS011;8235;52.198;9.904;2023-05-07T03:21:52;24.20;;;16.87;;
16254;SDS011;8235;52.198;9.904;2023-05-07T03:24:20;22.80;;;15.07;;
16254;SDS011;8235;52.198;9.904;2023-05-07T03:26:46;21.13;;;15.40;;
16254;SDS011;8235;52.198;9.904;2023-05-07T03:29:13;22.47;;;15.40;;
16254;SDS011;8235;52.198;9.904;2023-05-07T03:31:39;21.40;;;14.20;;
16254;SDS011;8235;52.198;9.904;2023-05-07T03:34:06;23.43;;;15.43;;
16254;SDS011;8235;52.198;9.904;2023-05-07T03:36:32;22.63;;;15.77;;
16254;SDS011;8235;52.198;9.904;2023-05-07T03:38:58;20.17;;;15.27;;
16254;SDS011;8235;52.198;9.904;2023-05-07T03:41:26;21.00;;;14.63;;
16254;SDS011;8235;52.198;9.904;2023-05-07T03:43:54;20.87;;;14.83;;
16254;SDS011;8235;52.198;9.904;2023-05-07T03:46:21;20.30;;;14.50;;
16254;SDS011;8235;52.198;9.904;2023-05-07T03:48:47;21.60;;;14.37;;
16254;SDS011;8235;52.198;9.904;2023-05-07T03:51:14;21.60;;;15.60;;
16254;SDS011;8235;52.198;9.904;2023-05-07T03:53:41;22.13;;;15.83;;
16254;SDS011;8235;52.198;9.904;2023-05-07T03:56:07;23.33;;;15.70;;
16254;SDS011;8235;52.198;9.904;2023-05-07T03:58:35;20.43;;;15.50;;
16254;SDS011;8235;52.198;9.904;2023-05-07T04:01:02;21.50;;;14.93;;
16254;SDS011;8235;52.198;9.904;2023-05-07T04:03:29;20.03;;;14.00;;
16254;SDS011;8235;52.198;9.904;2023-05-07T04:05:55;20.07;;;14.10;;
16254;SDS011;8235;52.198;9.904;2023-05-07T04:08:22;21.03;;;14.40;;
16254;SDS011;8235;52.198;9.904;2023-05-07T04:10:48;21.37;;;14.17;;
16254;SDS011;8235;52.198;9.904;2023-05-07T04:13:20;17.83;;;13.60;;
16254;SDS011;8235;52.198;9.904;2023-05-07T04:15:48;21.40;;;14.40;;
16254;SDS011;8235;52.198;9.904;2023-05-07T04:18:14;18.47;;;13.27;;
16254;SDS011;8235;52.198;9.904;2023-05-07T04:20:41;18.80;;;12.53;;
16254;SDS011;8235;52.198;9.904;2023-05-07T04:23:07;19.60;;;13.87;;
16254;SDS011;8235;52.198;9.904;2023-05-07T04:25:34;20.47;;;14.73;;
16254;SDS011;8235;52.198;9.904;2023-05-07T04:28:00;18.53;;;12.73;;
16254;SDS011;8235;52.198;9.904;2023-05-07T04:30:27;21.43;;;13.20;;
16254;SDS011;8235;52.198;9.904;2023-05-07T04:32:55;17.67;;;13.13;;
16254;SDS011;8235;52.198;9.904;2023-05-07T04:35:22;21.43;;;14.80;;
16254;SDS011;8235;52.198;9.904;2023-05-07T04:37:48;19.70;;;13.93;;
16254;SDS011;8235;52.198;9.904;2023-05-07T04:40:14;18.47;;;12.43;;
16254;SDS011;8235;52.198;9.904;2023-05-07T04:42:41;17.97;;;13.00;;
16254;SDS011;8235;52.198;9.904;2023-05-07T04:45:08;19.47;;;13.20;;
16254;SDS011;8235;52.198;9.904;2023-05-07T04:47:35;19.40;;;12.70;;
16254;SDS011;8235;52.198;9.904;2023-05-07T04:50:03;17.43;;;11.73;;
16254;SDS011;8235;52.198;9.904;2023-05-07T04:52:30;17.63;;;12.77;;
16254;SDS011;8235;52.198;9.904;2023-05-07T04:54:58;16.77;;;12.20;;
16254;SDS011;8235;52.198;9.904;2023-05-07T04:57:25;17.70;;;12.53;;
16254;SDS011;8235;52.198;9.904;2023-05-07T04:59:52;18.00;;;12.27;;
16254;SDS011;8235;52.198;9.904;2023-05-07T05:02:18;19.80;;;13.83;;
16254;SDS011;8235;52.198;9.904;2023-05-07T05:04:45;17.77;;;12.87;;
16254;SDS011;8235;52.198;9.904;2023-05-07T05:07:12;17.23;;;12.20;;
16254;SDS011;8235;52.198;9.904;2023-05-07T05:09:39;17.97;;;12.57;;
16254;SDS011;8235;52.198;9.904;2023-05-07T05:12:05;19.90;;;12.57;;
16254;SDS011;8235;52.198;9.904;2023-05-07T05:14:32;17.67;;;12.50;;
16254;SDS011;8235;52.198;9.904;2023-05-07T05:16:58;17.20;;;11.20;;
16254;SDS011;8235;52.198;9.904;2023-05-07T05:19:25;14.50;;;11.47;;
16254;SDS011;8235;52.198;9.904;2023-05-07T05:21:51;16.87;;;11.03;;
16254;SDS011;8235;52.198;9.904;2023-05-07T05:24:19;15.60;;;11.60;;
16254;SDS011;8235;52.198;9.904;2023-05-07T05:26:46;15.20;;;10.57;;
16254;SDS011;8235;52.198;9.904;2023-05-07T05:29:12;12.80;;;10.57;;
16254;SDS011;8235;52.198;9.904;2023-05-07T05:31:38;15.97;;;11.17;;
16254;SDS011;8235;52.198;9.904;2023-05-07T05:34:06;15.17;;;10.50;;
16254;SDS011;8235;52.198;9.904;2023-05-07T05:36:32;15.63;;;11.17;;
16254;SDS011;8235;52.198;9.904;2023-05-07T05:38:59;13.37;;;9.80;;
16254;SDS011;8235;52.198;9.904;2023-05-07T05:41:27;12.50;;;9.83;;
16254;SDS011;8235;52.198;9.904;2023-05-07T05:43:53;12.80;;;10.30;;
16254;SDS011;8235;52.198;9.904;2023-05-07T05:46:20;13.87;;;9.97;;
16254;SDS011;8235;52.198;9.904;2023-05-07T05:48:46;12.07;;;9.37;;
16254;SDS011;8235;52.198;9.904;2023-05-07T05:51:12;12.60;;;10.10;;
16254;SDS011;8235;52.198;9.904;2023-05-07T05:53:39;13.03;;;10.03;;
16254;SDS011;8235;52.198;9.904;2023-05-07T05:56:06;11.37;;;9.47;;
16254;SDS011;8235;52.198;9.904;2023-05-07T05:58:34;11.83;;;9.67;;
16254;SDS011;8235;52.198;9.904;2023-05-07T06:01:00;12.53;;;10.17;;
16254;SDS011;8235;52.198;9.904;2023-05-07T06:03:27;12.97;;;10.03;;
16254;SDS011;8235;52.198;9.904;2023-05-07T06:05:54;11.73;;;9.83;;
16254;SDS011;8235;52.198;9.904;2023-05-07T06:08:20;11.27;;;8.37;;
16254;SDS011;8235;52.198;9.904;2023-05-07T06:10:46;11.40;;;8.77;;
16254;SDS011;8235;52.198;9.904;2023-05-07T06:13:13;11.57;;;9.40;;
16254;SDS011;8235;52.198;9.904;2023-05-07T06:15:41;11.97;;;9.43;;
16254;SDS011;8235;52.198;9.904;2023-05-07T06:18:07;11.13;;;9.13;;
16254;SDS011;8235;52.198;9.904;2023-05-07T06:20:33;10.83;;;8.47;;
16254;SDS011;8235;52.198;9.904;2023-05-07T06:23:00;9.57;;;7.53;;
16254;SDS011;8235;52.198;9.904;2023-05-07T06:25:26;10.87;;;8.60;;
16254;SDS011;8235;52.198;9.904;2023-05-07T06:27:53;10.17;;;8.30;;
16254;SDS011;8235;52.198;9.904;2023-05-07T06:30:19;10.13;;;7.90;;
16254;SDS011;8235;52.198;9.904;2023-05-07T06:32:47;12.60;;;8.43;;
16254;SDS011;8235;52.198;9.904;2023-05-07T06:35:14;9.53;;;8.07;;
16254;SDS011;8235;52.198;9.904;2023-05-07T06:37:41;8.83;;;7.43;;
16254;SDS011;8235;52.198;9.904;2023-05-07T06:40:08;8.57;;;6.77;;
16254;SDS011;8235;52.198;9.904;2023-05-07T06:42:36;9.93;;;8.27;;
16254;SDS011;8235;52.198;9.904;2023-05-07T06:45:02;8.93;;;7.47;;
16254;SDS011;8235;52.198;9.904;2023-05-07T06:47:29;9.20;;;7.50;;
16254;SDS011;8235;52.198;9.904;2023-05-07T06:49:57;9.60;;;7.20;;
16254;SDS011;8235;52.198;9.904;2023-05-07T06:52:24;9.40;;;7.10;;
16254;SDS011;8235;52.198;9.904;2023-05-07T06:54:51;9.10;;;7.37;;
16254;SDS011;8235;52.198;9.904;2023-05-07T06:57:17;8.17;;;6.43;;
16254;SDS011;8235;52.198;9.904;2023-05-07T06:59:43;8.23;;;6.53;;
16254;SDS011;8235;52.198;9.904;2023-05-07T07:02:10;8.17;;;6.17;;
16254;SDS011;8235;52.198;9.904;2023-05-07T07:04:36;8.13;;;6.07;;
16254;SDS011;8235;52.198;9.904;2023-05-07T07:07:04;8.77;;;7.37;;
16254;SDS011;8235;52.198;9.904;2023-05-07T07:09:31;8.00;;;6.87;;
16254;SDS011;8235;52.198;9.904;2023-05-07T07:11:57;8.83;;;6.90;;
16254;SDS011;8235;52.198;9.904;2023-05-07T07:14:23;9.03;;;6.30;;
16254;SDS011;8235;52.198;9.904;2023-05-07T07:16:50;8.17;;;5.97;;
16254;SDS011;8235;52.198;9.904;2023-05-07T07:19:16;7.67;;;6.87;;
16254;SDS011;8235;52.198;9.904;2023-05-07T07:21:43;8.60;;;6.90;;
16254;SDS011;8235;52.198;9.904;2023-05-07T07:24:11;9.40;;;7.60;;
16254;SDS011;8235;52.198;9.904;2023-05-07T07:26:37;9.93;;;7.83;;
16254;SDS011;8235;52.198;9.904;2023-05-07T07:29:04;8.13;;;6.70;;
16254;SDS011;8235;52.198;9.904;2023-05-07T07:31:31;9.57;;;6.73;;
16254;SDS011;8235;52.198;9.904;2023-05-07T07:33:58;9.20;;;7.20;;
16254;SDS011;8235;52.198;9.904;2023-05-07T07:36:24;8.13;;;7.13;;
16254;SDS011;8235;52.198;9.904;2023-05-07T07:38:51;8.57;;;6.67;;
16254;SDS011;8235;52.198;9.904;2023-05-07T07:41:19;7.20;;;6.10;;
16254;SDS011;8235;52.198;9.904;2023-05-07T07:43:46;7.73;;;6.90;;
16254;SDS011;8235;52.198;9.904;2023-05-07T07:46:12;8.60;;;7.33;;
16254;SDS011;8235;52.198;9.904;2023-05-07T07:48:39;8.13;;;6.83;;
16254;SDS011;8235;52.198;9.904;2023-05-07T07:51:05;8.17;;;7.23;;
16254;SDS011;8235;52.198;9.904;2023-05-07T07:53:32;10.07;;;8.53;;
16254;SDS011;8235;52.198;9.904;2023-05-07T07:55:58;10.43;;;8.80;;
16254;SDS011;8235;52.198;9.904;2023-05-07T07:58:26;12.03;;;9.80;;
16254;SDS011;8235;52.198;9.904;2023-05-07T08:00:53;11.70;;;9.67;;
16254;SDS011;8235;52.198;9.904;2023-05-07T08:03:20;10.90;;;9.80;;
16254;SDS011;8235;52.198;9.904;2023-05-07T08:05:47;9.73;;;8.73;;
16254;SDS011;8235;52.198;9.904;2023-05-07T08:08:16;10.47;;;9.37;;
16254;SDS011;8235;52.198;9.904;2023-05-07T08:10:42;13.13;;;10.40;;
16254;SDS011;8235;52.198;9.904;2023-05-07T08:13:09;10.67;;;8.80;;
16254;SDS011;8235;52.198;9.904;2023-05-07T08:15:37;11.03;;;9.77;;
16254;SDS011;8235;52.198;9.904;2023-05-07T08:18:03;10.43;;;9.37;;
16254;SDS011;8235;52.198;9.904;2023-05-07T08:20:30;11.47;;;10.27;;
16254;SDS011;8235;52.198;9.904;2023-05-07T08:22:56;10.50;;;9.07;;
16254;SDS011;8235;52.198;9.904;2023-05-07T08:25:23;11.10;;;9.33;;
16254;SDS011;8235;52.198;9.904;2023-05-07T08:27:49;10.77;;;9.53;;
16254;SDS011;8235;52.198;9.904;2023-05-07T08:30:16;9.53;;;8.50;;
16254;SDS011;8235;52.198;9.904;2023-05-07T08:32:44;9.83;;;8.80;;
16254;SDS011;8235;52.198;9.904;2023-05-07T08:35:10;9.60;;;8.60;;
16254;SDS011;8235;52.198;9.904;2023-05-07T08:37:36;10.30;;;8.90;;
16254;SDS011;8235;52.198;9.904;2023-05-07T08:40:03;10.90;;;9.80;;
16254;SDS011;8235;52.198;9.904;2023-05-07T08:42:31;10.20;;;8.60;;
16254;SDS011;8235;52.198;9.904;2023-05-07T08:45:01;10.17;;;9.17;;
16254;SDS011;8235;52.198;9.904;2023-05-07T08:47:32;12.13;;;9.67;;
16254;SDS011;8235;52.198;9.904;2023-05-07T08:50:02;11.10;;;9.60;;
16254;SDS011;8235;52.198;9.904;2023-05-07T08:52:30;9.53;;;8.63;;
16254;SDS011;8235;52.198;9.904;2023-05-07T08:54:58;10.73;;;9.53;;
16254;SDS011;8235;52.198;9.904;2023-05-07T08:57:25;9.93;;;8.93;;
16254;SDS011;8235;52.198;9.904;2023-05-07T08:59:51;10.37;;;9.07;;
16254;SDS011;8235;52.198;9.904;2023-05-07T09:02:18;9.57;;;8.63;;
16254;SDS011;8235;52.198;9.904;2023-05-07T09:04:44;8.73;;;7.83;;
16254;SDS011;8235;52.198;9.904;2023-05-07T09:07:12;9.50;;;8.50;;
16254;SDS011;8235;52.198;9.904;2023-05-07T09:09:39;8.90;;;7.47;;
16254;SDS011;8235;52.198;9.904;2023-05-07T09:12:05;10.03;;;9.03;;
16254;SDS011;8235;52.198;9.904;2023-05-07T09:14:32;11.10;;;9.97;;
16254;SDS011;8235;52.198;9.904;2023-05-07T09:16:59;11.27;;;9.70;;
16254;SDS011;8235;52.198;9.904;2023-05-07T09:19:26;12.57;;;10.00;;
16254;SDS011;8235;52.198;9.904;2023-05-07T09:21:57;9.70;;;8.80;;
16254;SDS011;8235;52.198;9.904;2023-05-07T09:24:26;11.27;;;9.37;;
16254;SDS011;8235;52.198;9.904;2023-05-07T09:26:53;9.80;;;8.80;;
16254;SDS011;8235;52.198;9.904;2023-05-07T09:29:20;11.77;;;10.57;;
16254;SDS011;8235;52.198;9.904;2023-05-07T09:31:47;11.00;;;9.90;;
16254;SDS011;8235;52.198;9.904;2023-05-07T09:34:13;11.23;;;10.07;;
16254;SDS011;8235;52.198;9.904;2023-05-07T09:36:39;11.70;;;10.50;;
16254;SDS011;8235;52.198;9.904;2023-05-07T09:39:06;12.07;;;10.70;;
16254;SDS011;8235;52.198;9.904;2023-05-07T09:41:36;12.00;;;10.80;;
16254;SDS011;8235;52.198;9.904;2023-05-07T09:44:09;12.83;;;11.43;;
16254;SDS011;8235;52.198;9.904;2023-05-07T09:46:36;12.37;;;10.80;;
16254;SDS011;8235;52.198;9.904;2023-05-07T09:49:04;12.17;;;10.97;;
16254;SDS011;8235;52.198;9.904;2023-05-07T09:51:37;13.40;;;12.00;;
16254;SDS011;8235;52.198;9.904;2023-05-07T09:54:07;12.93;;;11.53;;
16254;SDS011;8235;52.198;9.904;2023-05-07T09:56:35;13.47;;;12.17;;
16254;SDS011;8235;52.198;9.904;2023-05-07T09:59:03;14.13;;;12.63;;
16254;SDS011;8235;52.198;9.904;2023-05-07T10:01:31;13.10;;;11.87;;
16254;SDS011;8235;52.198;9.904;2023-05-07T10:03:58;15.30;;;12.23;;
16254;SDS011;8235;52.198;9.904;2023-05-07T10:06:25;14.23;;;10.77;;
16254;SDS011;8235;52.198;9.904;2023-05-07T10:08:52;13.10;;;11.73;;
16254;SDS011;8235;52.198;9.904;2023-05-07T10:11:19;12.07;;;10.87;;
16254;SDS011;8235;52.198;9.904;2023-05-07T10:13:49;13.37;;;12.03;;
16254;SDS011;8235;52.198;9.904;2023-05-07T10:16:17;12.50;;;11.20;;
16254;SDS011;8235;52.198;9.904;2023-05-07T10:18:45;12.60;;;10.83;;
16254;SDS011;8235;52.198;9.904;2023-05-07T10:21:15;11.90;;;10.50;;
16254;SDS011;8235;52.198;9.904;2023-05-07T10:23:44;13.13;;;11.73;;
16254;SDS011;8235;52.198;9.904;2023-05-07T10:26:11;13.50;;;11.23;;
16254;SDS011;8235;52.198;9.904;2023-05-07T10:28:42;12.80;;;11.60;;
16254;SDS011;8235;52.198;9.904;2023-05-07T10:31:29;12.77;;;11.50;;
16254;SDS011;8235;52.198;9.904;2023-05-07T10:34:07;11.73;;;10.63;;
16254;SDS011;8235;52.198;9.904;2023-05-07T10:36:37;13.70;;;12.40;;
16254;SDS011;8235;52.198;9.904;2023-05-07T10:39:05;13.57;;;12.13;;
16254;SDS011;8235;52.198;9.904;2023-05-07T10:41:32;12.20;;;11.00;;
16254;SDS011;8235;52.198;9.904;2023-05-07T10:44:00;11.63;;;10.53;;
16254;SDS011;8235;52.198;9.904;2023-05-07T10:46:28;11.60;;;10.50;;
16254;SDS011;8235;52.198;9.904;2023-05-07T10:51:41;11.80;;;10.60;;
16254;SDS011;8235;52.198;9.904;2023-05-07T10:54:20;12.00;;;10.60;;
16254;SDS011;8235;52.198;9.904;2023-05-07T10:56:48;12.33;;;10.30;;
16254;SDS011;8235;52.198;9.904;2023-05-07T11:02:09;11.70;;;10.60;;
16254;SDS011;8235;52.198;9.904;2023-05-07T11:04:39;11.57;;;10.37;;
16254;SDS011;8235;52.198;9.904;2023-05-07T11:09:58;11.70;;;10.60;;
16254;SDS011;8235;52.198;9.904;2023-05-07T11:18:16;11.30;;;10.10;;
16254;SDS011;8235;52.198;9.904;2023-05-07T11:20:45;10.00;;;9.10;;
16254;SDS011;8235;52.198;9.904;2023-05-07T11:26:17;10.63;;;9.53;;
16254;SDS011;8235;52.198;9.904;2023-05-07T11:28:44;9.73;;;8.83;;
16254;SDS011;8235;52.198;9.904;2023-05-07T11:31:12;10.23;;;9.23;;
16254;SDS011;8235;52.198;9.904;2023-05-07T11:33:40;10.73;;;9.60;;
16254;SDS011;8235;52.198;9.904;2023-05-07T11:36:09;10.67;;;9.67;;
16254;SDS011;8235;52.198;9.904;2023-05-07T11:38:37;10.20;;;9.30;;
16254;SDS011;8235;52.198;9.904;2023-05-07T11:41:05;10.43;;;9.33;;
16254;SDS011;8235;52.198;9.904;2023-05-07T11:43:32;10.33;;;9.33;;
16254;SDS011;8235;52.198;9.904;2023-05-07T11:46:08;10.17;;;9.23;;
16254;SDS011;8235;52.198;9.904;2023-05-07T11:48:36;9.50;;;8.70;;
16254;SDS011;8235;52.198;9.904;2023-05-07T11:51:05;9.77;;;8.87;;
16254;SDS011;8235;52.198;9.904;2023-05-07T11:53:37;9.93;;;8.93;;
16254;SDS011;8235;52.198;9.904;2023-05-07T11:56:08;10.33;;;9.37;;
16254;SDS011;8235;52.198;9.904;2023-05-07T11:58:35;8.77;;;7.87;;
16254;SDS011;8235;52.198;9.904;2023-05-07T12:01:02;7.73;;;7.03;;
16254;SDS011;8235;52.198;9.904;2023-05-07T12:03:30;7.80;;;7.00;;
16254;SDS011;8235;52.198;9.904;2023-05-07T12:05:57;8.80;;;7.93;;
16254;SDS011;8235;52.198;9.904;2023-05-07T12:08:27;9.17;;;8.30;;
16254;SDS011;8235;52.198;9.904;2023-05-07T12:10:54;8.53;;;7.63;;
16254;SDS011;8235;52.198;9.904;2023-05-07T12:13:21;8.10;;;7.30;;
16254;SDS011;8235;52.198;9.904;2023-05-07T12:15:52;8.43;;;7.63;;
16254;SDS011;8235;52.198;9.904;2023-05-07T12:18:19;8.53;;;7.73;;
16254;SDS011;8235;52.198;9.904;2023-05-07T12:20:46;8.33;;;7.53;;
16254;SDS011;8235;52.198;9.904;2023-05-07T12:23:14;7.30;;;6.60;;
16254;SDS011;8235;52.198;9.904;2023-05-07T12:25:43;7.30;;;6.60;;
16254;SDS011;8235;52.198;9.904;2023-05-07T12:28:13;7.80;;;7.10;;
16254;SDS011;8235;52.198;9.904;2023-05-07T12:30:40;7.90;;;7.20;;
16254;SDS011;8235;52.198;9.904;2023-05-07T12:33:08;7.80;;;7.10;;
16254;SDS011;8235;52.198;9.904;2023-05-07T12:35:37;7.63;;;7.00;;
16254;SDS011;8235;52.198;9.904;2023-05-07T12:38:07;7.63;;;7.00;;
16254;SDS011;8235;52.198;9.904;2023-05-07T12:40:36;7.77;;;7.07;;
16254;SDS011;8235;52.198;9.904;2023-05-07T12:43:05;8.00;;;7.20;;
16254;SDS011;8235;52.198;9.904;2023-05-07T12:45:36;7.97;;;7.27;;
16254;SDS011;8235;52.198;9.904;2023-05-07T12:48:04;8.07;;;7.37;;
16254;SDS011;8235;52.198;9.904;2023-05-07T12:50:32;9.13;;;8.23;;
16254;SDS011;8235;52.198;9.904;2023-05-07T12:53:00;9.83;;;8.53;;
16254;SDS011;8235;52.198;9.904;2023-05-07T12:55:31;9.67;;;8.87;;
16254;SDS011;8235;52.198;9.904;2023-05-07T12:58:00;9.27;;;8.47;;
16254;SDS011;8235;52.198;9.904;2023-05-07T13:00:38;10.73;;;9.63;;
16254;SDS011;8235;52.198;9.904;2023-05-07T13:03:06;10.77;;;9.83;;
16254;SDS011;8235;52.198;9.904;2023-05-07T13:05:34;11.03;;;10.03;;
16254;SDS011;8235;52.198;9.904;2023-05-07T13:08:03;11.50;;;10.33;;
16254;SDS011;8235;52.198;9.904;2023-05-07T13:10:31;11.73;;;10.63;;
16254;SDS011;8235;52.198;9.904;2023-05-07T13:12:59;12.80;;;10.80;;
16254;SDS011;8235;52.198;9.904;2023-05-07T13:15:26;11.90;;;10.80;;
16254;SDS011;8235;52.198;9.904;2023-05-07T13:17:55;11.17;;;10.10;;
16254;SDS011;8235;52.198;9.904;2023-05-07T13:20:23;11.83;;;10.63;;
16254;SDS011;8235;52.198;9.904;2023-05-07T13:22:51;10.00;;;9.20;;
16254;SDS011;8235;52.198;9.904;2023-05-07T13:25:18;10.50;;;9.60;;
16254;SDS011;8235;52.198;9.904;2023-05-07T13:27:46;10.93;;;9.93;;
16254;SDS011;8235;52.198;9.904;2023-05-07T13:30:14;10.77;;;9.87;;
16254;SDS011;8235;52.198;9.904;2023-05-07T13:32:41;10.13;;;9.23;;
16254;SDS011;8235;52.198;9.904;2023-05-07T13:35:12;10.57;;;9.67;;
16254;SDS011;8235;52.198;9.904;2023-05-07T13:37:39;10.40;;;9.50;;
16254;SDS011;8235;52.198;9.904;2023-05-07T13:40:07;10.17;;;9.27;;
16254;SDS011;8235;52.198;9.904;2023-05-07T13:42:35;10.43;;;9.53;;
16254;SDS011;8235;52.198;9.904;2023-05-07T13:45:03;10.90;;;9.90;;
16254;SDS011;8235;52.198;9.904;2023-05-07T13:47:31;11.80;;;10.70;;
16254;SDS011;8235;52.198;9.904;2023-05-07T13:49:59;10.67;;;9.60;;
16254;SDS011;8235;52.198;9.904;2023-05-07T13:52:28;10.83;;;9.83;;
16254;SDS011;8235;52.198;9.904;2023-05-07T13:54:55;9.90;;;9.00;;
16254;SDS011;8235;52.198;9.904;2023-05-07T13:57:24;10.27;;;9.37;;
16254;SDS011;8235;52.198;9.904;2023-05-07T13:59:51;10.70;;;9.80;;
16254;SDS011;8235;52.198;9.904;2023-05-07T14:02:19;10.30;;;9.40;;
16254;SDS011;8235;52.198;9.904;2023-05-07T14:04:46;9.60;;;8.80;;
16254;SDS011;8235;52.198;9.904;2023-05-07T14:07:13;8.93;;;8.13;;
16254;SDS011;8235;52.198;9.904;2023-05-07T14:09:43;8.93;;;8.13;;
16254;SDS011;8235;52.198;9.904;2023-05-07T14:12:10;9.00;;;8.30;;
16254;SDS011;8235;52.198;9.904;2023-05-07T14:14:38;9.03;;;8.33;;
16254;SDS011;8235;52.198;9.904;2023-05-07T14:17:05;9.20;;;8.40;;
16254;SDS011;8235;52.198;9.904;2023-05-07T14:19:33;8.73;;;8.03;;
16254;SDS011;8235;52.198;9.904;2023-05-07T14:22:03;8.57;;;7.73;;
16254;SDS011;8235;52.198;9.904;2023-05-07T14:24:31;9.17;;;8.37;;
16254;SDS011;8235;52.198;9.904;2023-05-07T14:27:01;9.40;;;8.57;;
16254;SDS011;8235;52.198;9.904;2023-05-07T14:29:29;9.67;;;8.70;;
16254;SDS011;8235;52.198;9.904;2023-05-07T14:31:56;9.83;;;8.87;;
16254;SDS011;8235;52.198;9.904;2023-05-07T14:34:24;9.03;;;8.23;;
16254;SDS011;8235;52.198;9.904;2023-05-07T14:36:50;9.03;;;8.23;;
16254;SDS011;8235;52.198;9.904;2023-05-07T14:39:17;9.50;;;8.63;;
16254;SDS011;8235;52.198;9.904;2023-05-07T14:41:44;9.87;;;8.93;;
16254;SDS011;8235;52.198;9.904;2023-05-07T14:44:14;10.20;;;9.10;;
16254;SDS011;8235;52.198;9.904;2023-05-07T14:46:41;10.60;;;9.60;;
16254;SDS011;8235;52.198;9.904;2023-05-07T14:49:07;10.07;;;9.07;;
16254;SDS011;8235;52.198;9.904;2023-05-07T14:51:41;11.17;;;10.03;;
16254;SDS011;8235;52.198;9.904;2023-05-07T14:54:07;10.30;;;9.30;;
16254;SDS011;8235;52.198;9.904;2023-05-07T14:56:34;12.37;;;11.23;;
16254;SDS011;8235;52.198;9.904;2023-05-07T14:59:01;11.43;;;10.30;;
16254;SDS011;8235;52.198;9.904;2023-05-07T15:01:30;11.63;;;10.50;;